Time;durP1;ratioP1;P1;durP2;ratioP2;P2;SDS_P1;SDS_P2;PMS_P1;PMS_P2;Temp;Humidity;BMP_temperature;BMP_pressure;BME280_temperature;BME280_humidity;BME280_pressure;Samples;Min_cycle;Max_cycle;Signal;HPM_P1;HPM_P2
2021/12/21 00:00:13;;;;;;;7.10;3.75;;;3.00;99.90;;;;;;4979823;28;20052;-56
2021/12/21 00:02:49;;;;;;;7.90;4.32;;;2.90;99.90;;;;;;4996411;28;20041;-50
2021/12/21 00:05:19;;;;;;;6.00;3.55;;;3.00;99.90;;;;;;5034517;28;20457;-52
2021/12/21 00:07:48;;;;;;;6.75;4.22;;;3.10;99.90;;;;;;5034239;28;20037;-51
2021/12/21 00:10:14;;;;;;;8.32;3.80;;;3.00;99.90;;;;;;5015927;28;20057;-54
2021/12/21 00:12:51;;;;;;;5.43;3.47;;;3.10;99.90;;;;;;5034883;28;20052;-52
2021/12/21 00:18:19;;;;;;;4.38;3.22;;;3.00;99.90;;;;;;5032978;28;20121;-52
2021/12/21 00:26:10;;;;;;;7.13;4.70;;;3.00;99.90;;;;;;5034239;28;20028;-53
2021/12/21 00:28:59;;;;;;;5.32;3.35;;;3.00;99.90;;;;;;5034353;28;20026;-55
2021/12/21 00:31:28;;;;;;;8.25;3.42;;;3.00;99.90;;;;;;5034037;28;20026;-52
2021/12/21 00:33:54;;;;;;;6.05;4.20;;;3.10;99.90;;;;;;5034157;28;20113;-55
2021/12/21 00:36:23;;;;;;;6.50;4.28;;;3.10;99.90;;;;;;5034877;28;20053;-55
2021/12/21 00:38:50;;;;;;;5.18;3.88;;;3.10;99.90;;;;;;5053045;28;20515;-49
2021/12/21 00:41:17;;;;;;;6.88;3.92;;;3.10;99.90;;;;;;5036633;28;20025;-52
2021/12/21 00:43:43;;;;;;;7.03;4.07;;;3.10;99.90;;;;;;5057621;28;20524;-53
2021/12/21 00:46:10;;;;;;;5.78;4.15;;;3.10;99.90;;;;;;5058855;28;20033;-53
2021/12/21 00:48:36;;;;;;;8.65;4.13;;;3.10;99.90;;;;;;5050189;28;20038;-50
2021/12/21 00:51:06;;;;;;;9.13;4.85;;;3.10;99.90;;;;;;5024073;28;20045;-54
2021/12/21 00:53:35;;;;;;;7.57;3.38;;;3.10;99.90;;;;;;5026168;28;20029;-53
2021/12/21 00:56:01;;;;;;;5.38;3.28;;;3.10;99.90;;;;;;5055076;28;20119;-53
2021/12/21 00:58:27;;;;;;;5.68;3.42;;;3.10;99.90;;;;;;5050965;28;20025;-54
2021/12/21 01:00:52;;;;;;;9.65;4.60;;;3.20;99.90;;;;;;5045476;28;20029;-52
2021/12/21 01:03:19;;;;;;;6.13;3.90;;;3.10;99.90;;;;;;5043519;28;20075;-52
2021/12/21 01:06:08;;;;;;;5.63;4.13;;;3.10;99.90;;;;;;5048958;28;20040;-54
2021/12/21 01:08:45;;;;;;;5.88;4.07;;;3.10;99.90;;;;;;5048684;28;20064;-51
2021/12/21 01:11:17;;;;;;;31.45;16.80;;;3.10;99.90;;;;;;5035939;28;20053;-52
2021/12/21 01:16:21;;;;;;;5.20;3.70;;;3.10;99.90;;;;;;5056148;28;20159;-54
2021/12/21 01:19:12;;;;;;;8.27;3.17;;;3.10;99.90;;;;;;5061471;28;20029;-55
2021/12/21 01:21:51;;;;;;;6.32;3.25;;;3.10;99.90;;;;;;5063551;28;20075;-53
2021/12/21 01:26:57;;;;;;;4.25;2.10;;;3.00;99.90;;;;;;5040117;28;20056;-52
2021/12/21 01:32:07;;;;;;;21.40;13.95;;;3.10;99.90;;;;;;5041833;28;20048;-52
2021/12/21 01:34:53;;;;;;;5.00;3.42;;;3.10;99.90;;;;;;5044260;28;20073;-54
2021/12/21 01:50:53;;;;;;;4.40;3.40;;;3.10;99.90;;;;;;5043611;28;20064;-52
2021/12/21 01:53:19;;;;;;;5.55;3.25;;;3.00;99.90;;;;;;5045231;28;20473;-50
2021/12/21 01:55:46;;;;;;;6.03;3.72;;;3.00;99.90;;;;;;5060428;28;20029;-52
2021/12/21 01:58:13;;;;;;;5.70;3.40;;;3.00;99.90;;;;;;5066860;28;20074;-52
2021/12/21 02:00:39;;;;;;;6.22;4.20;;;3.00;99.90;;;;;;5063543;28;20450;-54
2021/12/21 02:03:06;;;;;;;5.93;3.78;;;2.90;99.90;;;;;;5020409;28;20039;-51
2021/12/21 02:05:32;;;;;;;8.40;4.60;;;2.90;99.90;;;;;;5057734;28;20040;-55
2021/12/21 02:07:57;;;;;;;7.38;3.78;;;2.90;99.90;;;;;;5065524;28;20102;-55
2021/12/21 02:10:23;;;;;;;52.88;47.92;;;2.90;99.90;;;;;;5065748;28;20560;-53
2021/12/21 02:12:49;;;;;;;11.70;6.13;;;2.80;99.90;;;;;;5048350;28;20064;-53
2021/12/21 02:15:17;;;;;;;5.63;3.60;;;2.80;99.90;;;;;;5063272;28;20094;-51
2021/12/21 02:20:38;;;;;;;5.25;3.45;;;2.70;99.90;;;;;;5061371;28;20070;-50
2021/12/21 02:23:16;;;;;;;6.45;3.75;;;2.60;99.90;;;;;;5056513;28;20049;-51
2021/12/21 02:30:48;;;;;;;13.68;6.75;;;2.50;99.90;;;;;;5056868;28;20437;-51
2021/12/21 02:33:15;;;;;;;13.43;10.80;;;2.50;99.90;;;;;;5056452;28;20499;-52
2021/12/21 02:35:42;;;;;;;10.98;8.98;;;2.30;99.90;;;;;;5056495;28;20029;-54
2021/12/21 02:38:08;;;;;;;6.63;4.53;;;2.50;99.90;;;;;;5056382;28;20025;-53
2021/12/21 02:40:35;;;;;;;5.90;3.90;;;2.50;99.90;;;;;;5056117;28;20032;-52
2021/12/21 02:43:02;;;;;;;10.52;4.43;;;2.50;99.90;;;;;;5051648;28;20061;-52
2021/12/21 02:45:28;;;;;;;7.10;4.22;;;2.50;99.90;;;;;;5036135;28;20033;-53
2021/12/21 02:47:54;;;;;;;8.38;5.57;;;2.50;99.90;;;;;;5050868;28;20112;-52
2021/12/21 02:50:20;;;;;;;7.85;4.55;;;2.50;99.90;;;;;;5036015;28;20028;-50
2021/12/21 02:52:48;;;;;;;6.80;4.20;;;2.50;99.90;;;;;;5034804;28;20040;-54
2021/12/21 02:55:15;;;;;;;10.82;6.03;;;2.40;99.90;;;;;;5035808;28;20040;-51
2021/12/21 02:57:41;;;;;;;9.68;5.63;;;2.40;99.90;;;;;;5035488;28;20029;-50
2021/12/21 03:00:08;;;;;;;8.05;4.35;;;2.50;99.90;;;;;;5034043;28;20123;-54
2021/12/21 03:02:35;;;;;;;8.07;3.80;;;2.40;99.90;;;;;;5017962;28;20038;-49
2021/12/21 03:05:01;;;;;;;11.60;6.00;;;2.30;99.90;;;;;;5036012;28;20037;-51
2021/12/21 03:10:12;;;;;;;9.50;3.63;;;2.30;99.90;;;;;;5036765;28;20496;-52
2021/12/21 03:15:17;;;;;;;20.23;11.10;;;2.40;99.90;;;;;;5035826;28;20381;-54
2021/12/21 03:17:43;;;;;;;6.28;3.85;;;2.30;99.90;;;;;;5033773;28;20457;-52
2021/12/21 03:20:10;;;;;;;5.90;3.70;;;2.30;99.90;;;;;;5035629;28;20037;-51
2021/12/21 03:22:35;;;;;;;6.22;3.35;;;2.30;99.90;;;;;;5016927;28;20033;-50
2021/12/21 03:25:01;;;;;;;8.98;5.70;;;2.30;99.90;;;;;;5035739;28;20040;-53
2021/12/21 03:27:27;;;;;;;11.48;5.88;;;2.20;99.90;;;;;;5035458;28;20453;-54
2021/12/21 03:29:53;;;;;;;8.93;5.25;;;2.20;99.90;;;;;;5035770;28;20036;-54
2021/12/21 03:32:19;;;;;;;6.53;3.33;;;2.10;99.90;;;;;;5035585;28;20029;-51
2021/12/21 03:34:44;;;;;;;5.25;4.00;;;2.00;99.90;;;;;;5035150;28;20095;-56
2021/12/21 03:37:13;;;;;;;7.15;4.00;;;2.00;99.90;;;;;;5016790;28;20048;-50
2021/12/21 03:39:44;;;;;;;9.13;5.15;;;2.00;99.90;;;;;;5035500;28;20068;-52
2021/12/21 03:42:13;;;;;;;16.70;8.43;;;2.00;99.90;;;;;;5035167;28;20037;-53
2021/12/21 03:44:40;;;;;;;6.13;4.10;;;2.10;99.90;;;;;;5035259;28;20342;-53
2021/12/21 03:47:09;;;;;;;5.38;4.10;;;2.10;99.90;;;;;;5034691;28;20028;-53
2021/12/21 03:52:14;;;;;;;11.30;5.68;;;2.00;99.90;;;;;;5035266;28;20035;-54
2021/12/21 03:54:42;;;;;;;6.93;4.68;;;2.00;99.90;;;;;;5033053;28;20481;-50
2021/12/21 03:57:08;;;;;;;6.40;3.28;;;2.00;99.90;;;;;;5032717;28;20034;-53
2021/12/21 03:59:35;;;;;;;9.98;4.47;;;1.90;99.90;;;;;;4999853;28;20050;-54
2021/12/21 04:02:01;;;;;;;5.82;3.28;;;1.90;99.90;;;;;;5032285;28;20499;-52
2021/12/21 04:04:27;;;;;;;3.97;3.22;;;1.90;99.90;;;;;;5032826;28;20052;-53
2021/12/21 04:06:53;;;;;;;5.22;3.20;;;1.80;99.90;;;;;;5032546;28;20033;-54
2021/12/21 04:09:19;;;;;;;4.88;3.58;;;1.90;99.90;;;;;;5031943;28;20041;-50
2021/12/21 04:11:45;;;;;;;5.32;3.75;;;2.00;99.90;;;;;;5015854;28;20120;-52
2021/12/21 04:14:13;;;;;;;6.35;3.78;;;2.00;99.90;;;;;;5032504;28;20056;-52
2021/12/21 04:16:40;;;;;;;7.97;4.25;;;2.10;99.90;;;;;;5032472;28;20116;-52
2021/12/21 04:19:05;;;;;;;10.18;4.32;;;2.20;99.90;;;;;;5032141;28;20033;-51
2021/12/21 04:21:31;;;;;;;5.78;3.17;;;2.20;99.90;;;;;;4999325;28;20415;-54
2021/12/21 04:23:57;;;;;;;4.78;2.90;;;2.20;99.90;;;;;;4983133;28;20038;-54
2021/12/21 04:26:23;;;;;;;6.40;3.10;;;2.10;99.90;;;;;;5033807;28;20096;-54
2021/12/21 04:28:49;;;;;;;4.88;3.10;;;2.10;99.90;;;;;;5016240;28;20099;-51
2021/12/21 04:31:15;;;;;;;8.13;3.92;;;2.10;99.90;;;;;;5049304;28;20052;-54
2021/12/21 04:33:45;;;;;;;7.80;3.63;;;2.10;99.90;;;;;;5034400;28;20025;-51
2021/12/21 04:36:12;;;;;;;5.75;3.70;;;2.10;99.90;;;;;;5012480;28;20200;-55
2021/12/21 04:38:42;;;;;;;4.68;3.28;;;2.10;99.90;;;;;;5012264;28;20041;-53
2021/12/21 04:43:36;;;;;;;8.88;3.83;;;2.20;99.90;;;;;;5012674;28;20045;-50
2021/12/21 04:46:02;;;;;;;4.28;2.80;;;2.20;99.90;;;;;;5012293;28;20121;-53
2021/12/21 04:48:28;;;;;;;7.03;3.53;;;2.20;99.90;;;;;;5012383;28;20248;-50
2021/12/21 04:50:54;;;;;;;7.03;3.47;;;2.20;99.90;;;;;;5012039;28;20121;-54
2021/12/21 04:53:20;;;;;;;4.78;2.88;;;2.20;99.90;;;;;;5011815;28;20041;-53
2021/12/21 04:55:46;;;;;;;4.63;3.60;;;2.10;99.90;;;;;;5011942;28;20042;-51
2021/12/21 04:58:12;;;;;;;5.85;3.55;;;2.00;99.90;;;;;;5012104;28;20025;-50
2021/12/21 05:00:40;;;;;;;8.00;4.53;;;2.10;99.90;;;;;;5012364;28;20120;-54
2021/12/21 05:03:06;;;;;;;5.40;3.42;;;2.10;99.90;;;;;;5028969;28;20033;-51
2021/12/21 05:05:33;;;;;;;6.85;3.47;;;2.10;99.90;;;;;;5031391;28;20025;-54
2021/12/21 05:08:08;;;;;;;7.72;4.28;;;2.10;99.90;;;;;;5046053;28;20041;-53
2021/12/21 05:10:46;;;;;;;5.38;3.90;;;2.10;99.90;;;;;;5043546;28;20462;-53
2021/12/21 05:13:13;;;;;;;8.65;4.20;;;2.10;99.90;;;;;;5034110;28;20120;-52
2021/12/21 05:15:39;;;;;;;6.53;4.05;;;2.10;99.90;;;;;;5034023;28;20025;-51
2021/12/21 05:18:05;;;;;;;190.95;173.48;;;2.10;99.90;;;;;;5033537;28;20080;-52
2021/12/21 05:20:31;;;;;;;7.32;4.80;;;2.20;99.90;;;;;;5033254;28;20040;-56
2021/12/21 05:22:57;;;;;;;9.18;4.90;;;2.20;99.90;;;;;;5033366;28;20384;-54
2021/12/21 05:25:22;;;;;;;8.93;4.72;;;2.20;99.90;;;;;;5033977;28;20033;-53
2021/12/21 05:27:48;;;;;;;10.98;6.05;;;2.20;99.90;;;;;;5033588;28;20034;-52
2021/12/21 05:30:14;;;;;;;8.70;5.32;;;2.20;99.90;;;;;;5031393;28;20042;-50
2021/12/21 05:32:40;;;;;;;8.15;5.32;;;2.20;99.90;;;;;;5033400;28;20032;-55
2021/12/21 05:35:07;;;;;;;10.30;6.20;;;2.20;99.90;;;;;;5033702;28;20024;-50
2021/12/21 05:37:34;;;;;;;7.13;5.05;;;2.30;99.90;;;;;;4998301;28;20030;-52
2021/12/21 05:40:11;;;;;;;8.70;4.80;;;2.30;99.90;;;;;;5033269;28;20034;-51
2021/12/21 05:42:38;;;;;;;10.73;5.47;;;2.30;99.90;;;;;;5045371;28;20475;-52
2021/12/21 05:45:05;;;;;;;8.07;4.63;;;2.20;99.90;;;;;;5053066;28;20104;-54
2021/12/21 05:47:31;;;;;;;8.15;4.57;;;2.30;99.90;;;;;;5033022;28;20146;-51
2021/12/21 05:49:56;;;;;;;15.57;8.25;;;2.30;99.90;;;;;;5053260;28;20076;-54
2021/12/21 05:52:22;;;;;;;38.65;18.80;;;2.20;99.90;;;;;;5049290;28;20037;-52
2021/12/21 05:54:49;;;;;;;8.57;5.57;;;2.30;99.90;;;;;;5033671;28;20046;-52
2021/12/21 05:57:15;;;;;;;8.95;6.68;;;2.20;99.90;;;;;;5033172;28;20056;-51
2021/12/21 05:59:41;;;;;;;11.80;9.43;;;2.20;99.90;;;;;;5033335;28;20041;-51
2021/12/21 06:02:07;;;;;;;6.75;4.05;;;2.10;99.90;;;;;;5043103;28;20036;-56
2021/12/21 06:04:32;;;;;;;5.55;3.55;;;2.00;99.90;;;;;;5036082;28;20492;-52
2021/12/21 06:06:58;;;;;;;6.60;4.60;;;1.90;99.90;;;;;;5018782;28;20041;-52
2021/12/21 06:09:25;;;;;;;9.55;4.90;;;2.00;99.90;;;;;;5038777;28;20096;-52
2021/12/21 06:12:16;;;;;;;8.25;4.75;;;2.00;99.90;;;;;;5052926;28;20040;-54
2021/12/21 06:25:35;;;;;;;7.00;5.10;;;2.10;99.90;;;;;;5063277;28;21570;-56
2021/12/21 06:28:04;;;;;;;7.13;5.45;;;2.00;99.90;;;;;;5067315;28;20028;-53
2021/12/21 06:30:30;;;;;;;5.75;4.35;;;2.10;99.90;;;;;;5063590;28;20033;-53
2021/12/21 06:32:56;;;;;;;8.05;5.18;;;2.10;99.90;;;;;;5041082;28;20044;-54
2021/12/21 06:35:22;;;;;;;7.78;4.80;;;2.20;99.90;;;;;;5037026;28;20048;-56
2021/12/21 06:37:48;;;;;;;14.00;7.78;;;2.20;99.90;;;;;;5051164;28;20033;-48
2021/12/21 06:40:14;;;;;;;20.80;11.23;;;2.30;99.90;;;;;;5013816;28;20056;-54
2021/12/21 06:42:41;;;;;;;19.52;8.50;;;2.20;99.90;;;;;;5011682;28;20536;-53
2021/12/21 06:45:16;;;;;;;11.05;6.90;;;2.30;99.90;;;;;;5035280;28;20119;-51
2021/12/21 06:53:11;;;;;;;7.30;5.15;;;2.40;99.90;;;;;;5026717;28;20090;-53
2021/12/21 06:55:36;;;;;;;11.00;5.60;;;4.20;99.90;;;;;;5033623;28;20381;-54
2021/12/21 06:58:02;;;;;;;7.95;5.18;;;5.80;99.90;;;;;;5033763;28;20096;-54
2021/12/21 07:00:28;;;;;;;8.68;5.43;;;7.40;99.90;;;;;;5033702;28;20053;-54
2021/12/21 07:02:54;;;;;;;7.90;4.95;;;8.90;99.90;;;;;;5033713;28;20039;-56
2021/12/21 07:05:20;;;;;;;7.72;5.35;;;10.10;99.70;;;;;;5033862;28;20033;-58
2021/12/21 07:07:46;;;;;;;9.07;5.20;;;10.80;96.70;;;;;;5033327;28;20045;-52
2021/12/21 07:10:21;;;;;;;185.55;167.27;;;11.40;96.00;;;;;;4985498;28;20532;-52
2021/12/21 07:18:12;;;;;;;6.43;4.35;;;12.20;92.50;;;;;;5045786;28;20044;-51
2021/12/21 07:20:38;;;;;;;6.90;4.43;;;11.70;92.40;;;;;;5038041;28;20131;-61
2021/12/21 07:23:05;;;;;;;8.40;5.88;;;11.50;90.80;;;;;;5064519;28;20025;-61
2021/12/21 07:25:32;;;;;;;16.13;10.05;;;13.80;90.00;;;;;;5076125;28;20056;-59
2021/12/21 07:27:58;;;;;;;333.52;301.02;;;13.90;90.20;;;;;;5047338;28;20063;-60
2021/12/21 07:30:23;;;;;;;886.97;815.88;;;13.40;89.70;;;;;;5059170;28;20028;-55
2021/12/21 07:32:49;;;;;;;22.60;13.15;;;14.50;86.10;;;;;;5063583;28;20509;-63
2021/12/21 07:35:15;;;;;;;12.85;9.27;;;15.00;83.80;;;;;;5064460;28;20055;-55
2021/12/21 07:37:41;;;;;;;10.05;6.40;;;15.10;83.40;;;;;;5078606;28;20024;-56
2021/12/21 07:40:08;;;;;;;9.70;6.68;;;15.60;81.00;;;;;;5062233;28;20531;-57
2021/12/21 07:42:34;;;;;;;17.92;12.27;;;16.30;81.70;;;;;;5061784;28;20029;-53
2021/12/21 07:45:00;;;;;;;24.65;15.15;;;16.20;79.30;;;;;;5075007;28;20033;-55
2021/12/21 07:47:26;;;;;;;10.00;5.70;;;15.30;80.90;;;;;;5056128;28;20435;-54
2021/12/21 07:49:52;;;;;;;7.28;5.18;;;16.10;79.50;;;;;;5055639;28;20078;-56
2021/12/21 07:52:18;;;;;;;8.60;6.82;;;17.30;78.30;;;;;;5055689;28;20101;-54
2021/12/21 07:54:45;;;;;;;11.55;8.05;;;15.20;77.40;;;;;;5074417;28;20517;-54
2021/12/21 07:57:11;;;;;;;13.52;9.63;;;15.20;77.50;;;;;;5059029;28;20029;-53
2021/12/21 07:59:39;;;;;;;23.33;20.67;;;14.60;77.70;;;;;;5055595;28;20042;-53
2021/12/21 08:02:06;;;;;;;10.30;9.07;;;;;;;;;;5057665;28;20036;-53
2021/12/21 08:04:33;;;;;;;9.40;7.97;;;16.00;77.80;;;;;;5064285;28;20068;-53
2021/12/21 08:07:07;;;;;;;271.58;250.50;;;16.30;76.20;;;;;;5060415;28;20076;-53
2021/12/21 08:09:38;;;;;;;7.53;5.68;;;16.50;74.90;;;;;;5050792;28;20064;-55
2021/12/21 08:12:15;;;;;;;10.57;7.45;;;;;;;;;;5029934;28;20520;-54
2021/12/21 08:14:43;;;;;;;20.70;14.30;;;15.00;75.10;;;;;;5041267;28;20081;-53
2021/12/21 08:17:09;;;;;;;11.10;10.00;;;;;;;;;;5052979;28;20021;-55
2021/12/21 08:19:35;;;;;;;9.07;7.93;;;15.50;76.30;;;;;;5059671;28;20467;-54
2021/12/21 08:22:01;;;;;;;10.23;9.43;;;15.00;75.90;;;;;;5050111;28;20044;-53
2021/12/21 08:24:27;;;;;;;9.15;8.20;;;16.10;75.40;;;;;;5050486;28;20399;-54
2021/12/21 08:26:53;;;;;;;134.57;121.45;;;16.50;92.20;;;;;;5056484;28;20032;-55
2021/12/21 08:29:19;;;;;;;16.95;14.32;;;16.00;74.30;;;;;;5061695;28;20449;-53
2021/12/21 08:31:46;;;;;;;8.48;7.75;;;16.60;73.00;;;;;;5061400;28;20384;-55
2021/12/21 08:34:11;;;;;;;80.68;73.88;;;16.30;73.90;;;;;;5057098;28;20040;-54
2021/12/21 08:36:37;;;;;;;11.07;10.30;;;17.00;73.30;;;;;;5050944;28;20017;-55
2021/12/21 08:39:04;;;;;;;10.13;9.27;;;16.70;72.40;;;;;;5053292;28;20032;-55
2021/12/21 08:41:33;;;;;;;15.63;14.52;;;;;;;;;;5060390;28;20036;-55
2021/12/21 08:43:59;;;;;;;10.27;9.45;;;16.60;72.20;;;;;;5060488;28;20017;-58
2021/12/21 08:46:25;;;;;;;9.40;8.40;;;15.80;72.50;;;;;;5063106;28;20107;-54
2021/12/21 08:48:50;;;;;;;28.90;27.00;;;14.20;75.10;;;;;;5053790;28;20096;-56
2021/12/21 08:51:16;;;;;;;15.68;14.65;;;15.40;73.70;;;;;;5063608;28;20032;-54
2021/12/21 08:53:42;;;;;;;16.13;15.07;;;16.10;72.40;;;;;;5063275;28;20060;-56
2021/12/21 08:56:09;;;;;;;12.00;10.88;;;13.90;72.90;;;;;;5061815;28;20033;-54
2021/12/21 08:58:35;;;;;;;11.35;10.65;;;14.70;75.20;;;;;;5063744;28;20107;-57
2021/12/21 09:01:01;;;;;;;10.30;9.32;;;13.10;75.00;;;;;;5063037;28;20132;-57
2021/12/21 09:03:26;;;;;;;17.40;15.95;;;13.80;75.90;;;;;;5062133;28;20448;-56
2021/12/21 09:05:53;;;;;;;12.93;12.02;;;;;;;;;;5063808;28;20021;-54
2021/12/21 09:08:19;;;;;;;12.55;11.15;;;14.00;73.10;;;;;;5052841;28;20084;-56
2021/12/21 09:10:44;;;;;;;11.82;10.95;;;15.20;74.30;;;;;;5039009;28;20041;-55
2021/12/21 09:13:12;;;;;;;7.50;5.93;;;15.90;72.40;;;;;;5041761;28;20049;-54
2021/12/21 09:15:38;;;;;;;40.47;37.83;;;15.90;72.10;;;;;;5056349;28;20399;-53
2021/12/21 09:18:05;;;;;;;34.05;14.48;;;16.70;71.10;;;;;;5063517;28;20055;-54
2021/12/21 09:20:31;;;;;;;21.75;17.73;;;16.80;69.40;;;;;;5057686;28;20025;-54
2021/12/21 09:22:59;;;;;;;20.10;19.00;;;16.50;70.50;;;;;;5052341;28;20103;-56
2021/12/21 09:25:26;;;;;;;16.42;15.30;;;15.50;70.90;;;;;;5051038;28;20068;-55
2021/12/21 09:27:52;;;;;;;4.85;4.00;;;15.70;71.60;;;;;;5053130;28;20025;-56
2021/12/21 09:30:20;;;;;;;15.93;14.95;;;15.00;70.60;;;;;;5048504;28;20026;-56
2021/12/21 09:32:46;;;;;;;18.48;17.17;;;15.00;72.10;;;;;;5053634;28;20030;-55
2021/12/21 09:35:13;;;;;;;27.50;25.15;;;15.20;72.90;;;;;;5056618;28;20035;-55
2021/12/21 09:37:39;;;;;;;25.95;24.55;;;16.70;72.50;;;;;;5052425;28;20380;-55
2021/12/21 09:40:09;;;;;;;11.02;7.35;;;14.60;71.40;;;;;;5057576;28;20615;-55
2021/12/21 09:42:35;;;;;;;9.25;8.40;;;;;;;;;;5040216;28;20059;-56
2021/12/21 09:45:02;;;;;;;5.30;3.28;;;14.00;71.50;;;;;;5062047;28;20032;-56
2021/12/21 09:47:28;;;;;;;6.13;3.50;;;13.30;72.50;;;;;;5063581;28;20025;-57
2021/12/21 09:49:55;;;;;;;5.15;3.63;;;10.80;75.10;;;;;;5058045;28;20025;-55
2021/12/21 09:52:23;;;;;;;8.80;3.67;;;8.80;79.40;;;;;;5037245;28;20029;-55
2021/12/21 09:54:50;;;;;;;6.50;4.30;;;8.40;80.10;;;;;;5056212;28;20087;-55
2021/12/21 09:57:17;;;;;;;6.97;3.80;;;9.20;78.70;;;;;;5062267;28;20178;-56
2021/12/21 09:59:48;;;;;;;8.20;3.70;;;8.90;79.00;;;;;;5063539;28;20089;-55
2021/12/21 10:02:17;;;;;;;7.00;4.95;;;8.50;80.70;;;;;;5060511;28;20032;-57
2021/12/21 10:04:51;;;;;;;5.82;3.95;;;9.60;81.00;;;;;;5063778;28;20048;-56
2021/12/21 10:07:18;;;;;;;5.70;3.40;;;9.30;81.80;;;;;;5059641;28;20032;-55
2021/12/21 10:09:46;;;;;;;5.05;3.30;;;7.70;82.50;;;;;;5062818;28;20048;-56
2021/12/21 10:12:25;;;;;;;6.90;3.50;;;7.00;84.00;;;;;;5062247;28;20047;-55
2021/12/21 10:15:02;;;;;;;5.05;2.70;;;7.10;84.20;;;;;;5053512;28;20041;-56
2021/12/21 10:17:31;;;;;;;6.85;3.38;;;6.80;85.40;;;;;;5063070;28;20040;-56
2021/12/21 10:19:57;;;;;;;5.80;3.75;;;7.00;85.80;;;;;;5062784;28;20049;-55
2021/12/21 10:22:23;;;;;;;11.15;10.13;;;7.20;85.60;;;;;;5046529;28;20160;-55
2021/12/21 10:24:52;;;;;;;8.73;4.20;;;8.90;86.50;;;;;;5062771;28;20037;-55
2021/12/21 10:27:22;;;;;;;9.20;4.90;;;8.50;85.50;;;;;;5055245;28;20032;-54
2021/12/21 10:29:57;;;;;;;5.90;3.95;;;8.10;84.40;;;;;;5048627;28;20032;-55
2021/12/21 10:32:26;;;;;;;7.13;4.00;;;7.30;84.80;;;;;;5067971;28;20086;-55
2021/12/21 10:35:04;;;;;;;7.90;3.92;;;7.40;86.20;;;;;;5061555;28;20054;-56
2021/12/21 10:37:40;;;;;;;5.38;3.53;;;7.30;85.30;;;;;;5029663;28;20486;-55
2021/12/21 10:40:25;;;;;;;9.95;3.55;;;7.10;86.40;;;;;;5056249;28;20045;-63
2021/12/21 10:42:58;;;;;;;8.40;6.47;;;7.20;87.00;;;;;;5053588;28;20025;-57
2021/12/21 10:45:32;;;;;;;4.50;3.45;;;7.10;86.60;;;;;;5056058;28;20139;-58
2021/12/21 10:48:00;;;;;;;9.55;8.65;;;7.50;87.00;;;;;;5019543;28;20034;-54
2021/12/21 10:50:33;;;;;;;8.25;7.65;;;8.60;87.00;;;;;;5045770;28;20107;-64
2021/12/21 10:53:00;;;;;;;10.73;10.05;;;10.00;85.20;;;;;;5062456;28;20103;-58
2021/12/21 10:55:29;;;;;;;8.07;4.68;;;10.70;81.90;;;;;;5071666;28;20029;-57
2021/12/21 10:58:17;;;;;;;29.80;22.05;;;10.80;81.10;;;;;;5067297;28;20480;-53
2021/12/21 11:01:04;;;;;;;33.70;24.30;;;10.10;79.80;;;;;;5064814;28;20063;-54
2021/12/21 11:03:49;;;;;;;40.33;17.80;;;8.90;80.40;;;;;;5054183;28;20040;-53
2021/12/21 11:06:16;;;;;;;7.75;3.60;;;8.60;81.60;;;;;;5055820;28;20037;-54
2021/12/21 11:08:45;;;;;;;15.57;10.85;;;9.00;83.40;;;;;;5056879;28;20040;-54
2021/12/21 11:11:34;;;;;;;19.63;17.63;;;7.80;82.80;;;;;;5063814;28;20024;-53
2021/12/21 11:14:09;;;;;;;11.70;7.97;;;7.80;84.40;;;;;;5057951;28;20044;-53
2021/12/21 11:16:45;;;;;;;20.05;11.23;;;8.00;84.60;;;;;;5054247;28;20469;-53
2021/12/21 11:19:12;;;;;;;8.90;8.10;;;8.40;84.70;;;;;;5055068;28;20087;-53
2021/12/21 11:21:40;;;;;;;5.63;3.58;;;8.40;82.60;;;;;;5055430;28;20048;-53
2021/12/21 11:24:10;;;;;;;37.67;24.17;;;7.40;83.10;;;;;;5055462;28;20027;-54
2021/12/21 11:26:37;;;;;;;28.60;16.33;;;7.20;85.70;;;;;;5052518;28;20036;-54
2021/12/21 11:29:06;;;;;;;24.58;12.23;;;7.00;86.10;;;;;;5070188;28;20510;-52
2021/12/21 11:31:38;;;;;;;250.23;223.70;;;6.20;87.00;;;;;;5067220;28;20537;-54
2021/12/21 11:34:08;;;;;;;35.13;17.05;;;6.20;88.40;;;;;;5050534;28;20387;-54
2021/12/21 11:39:22;;;;;;;47.33;22.88;;;7.50;93.20;;;;;;5055857;28;20106;-53
2021/12/21 11:41:50;;;;;;;52.75;26.80;;;6.90;87.20;;;;;;5055748;28;20038;-53
2021/12/21 11:44:23;;;;;;;10.95;7.57;;;6.60;93.40;;;;;;5058513;28;20476;-53
2021/12/21 11:46:56;;;;;;;39.17;21.42;;;6.40;88.40;;;;;;5059746;28;20032;-52
2021/12/21 11:49:42;;;;;;;9.80;6.40;;;6.10;89.10;;;;;;5042771;28;20087;-53
2021/12/21 11:52:16;;;;;;;65.55;34.78;;;5.70;89.00;;;;;;5039549;28;20029;-53
2021/12/21 11:55:03;;;;;;;39.58;21.55;;;6.00;89.40;;;;;;5044900;28;20061;-53
2021/12/21 11:57:38;;;;;;;21.02;11.27;;;6.80;88.60;;;;;;5044649;28;20055;-53
2021/12/21 12:00:21;;;;;;;16.08;8.88;;;6.60;87.40;;;;;;5044654;28;20920;-53
2021/12/21 12:02:49;;;;;;;20.75;14.35;;;6.60;88.60;;;;;;5044892;28;20035;-53
2021/12/21 12:05:26;;;;;;;30.17;14.25;;;6.90;88.60;;;;;;5058473;28;20041;-53
2021/12/21 12:08:09;;;;;;;8.63;3.92;;;6.80;87.60;;;;;;5059750;28;20033;-52
2021/12/21 12:10:50;;;;;;;35.80;15.00;;;6.20;88.60;;;;;;5053926;28;20094;-57
2021/12/21 12:13:33;;;;;;;22.73;13.40;;;6.60;88.70;;;;;;5034945;28;20174;-55
2021/12/21 12:16:11;;;;;;;22.80;11.68;;;6.90;88.60;;;;;;5080167;28;20040;-55
2021/12/21 12:18:44;;;;;;;19.63;11.93;;;7.00;87.80;;;;;;5060801;28;20376;-55
2021/12/21 12:21:22;;;;;;;11.15;7.97;;;7.30;87.60;;;;;;5049548;28;20083;-54
2021/12/21 12:23:52;;;;;;;13.18;8.25;;;7.80;87.20;;;;;;5053963;28;20174;-55
2021/12/21 12:26:29;;;;;;;11.23;6.63;;;7.70;86.70;;;;;;5064338;28;20130;-55
2021/12/21 12:29:11;;;;;;;11.00;5.47;;;7.60;87.20;;;;;;5049514;28;20496;-56
2021/12/21 12:31:40;;;;;;;8.40;5.38;;;7.50;85.60;;;;;;5028261;28;20128;-52
2021/12/21 12:34:06;;;;;;;8.05;5.85;;;7.10;87.40;;;;;;5051828;28;20025;-52
2021/12/21 12:36:47;;;;;;;7.13;4.63;;;7.50;86.80;;;;;;5036425;28;20033;-52
2021/12/21 12:39:28;;;;;;;8.65;4.28;;;7.30;86.10;;;;;;5041453;28;20041;-53
2021/12/21 12:41:59;;;;;;;4.70;2.95;;;7.20;86.90;;;;;;5041692;28;20592;-52
2021/12/21 12:44:25;;;;;;;7.95;3.42;;;6.90;86.60;;;;;;5033968;28;20033;-52
2021/12/21 12:46:59;;;;;;;3.50;2.55;;;6.70;87.30;;;;;;5032247;28;20037;-53
2021/12/21 12:49:28;;;;;;;37.80;34.80;;;6.70;88.30;;;;;;5046281;28;20040;-53
2021/12/21 12:52:12;;;;;;;13.93;6.38;;;6.50;88.20;;;;;;5034325;28;20037;-52
2021/12/21 12:54:52;;;;;;;9.82;5.70;;;6.40;88.30;;;;;;5042059;28;21101;-53
2021/12/21 12:58:10;;;;;;;10.50;5.65;;;6.90;88.40;;;;;;5053694;28;20094;-53
2021/12/21 13:00:35;;;;;;;7.80;4.15;;;6.60;88.30;;;;;;5048792;28;20057;-52
2021/12/21 13:03:07;;;;;;;6.20;4.22;;;7.00;87.60;;;;;;5053692;28;20063;-53
2021/12/21 13:05:56;;;;;;;6.97;4.50;;;7.40;87.50;;;;;;5053719;28;20476;-52
2021/12/21 13:08:25;;;;;;;6.60;3.85;;;8.20;85.10;;;;;;5053726;28;20087;-53
2021/12/21 13:10:55;;;;;;;8.40;4.82;;;8.10;85.40;;;;;;5053762;28;20037;-53
2021/12/21 13:13:33;;;;;;;5.72;3.67;;;8.00;84.90;;;;;;5053961;28;20073;-53
2021/12/21 13:16:10;;;;;;;8.55;5.25;;;7.80;84.70;;;;;;5053570;28;20119;-52
2021/12/21 13:18:54;;;;;;;9.23;5.82;;;8.40;85.40;;;;;;5053168;28;20033;-52
2021/12/21 13:21:36;;;;;;;29.15;6.85;;;8.80;85.80;;;;;;5053788;28;20036;-53
2021/12/21 13:24:14;;;;;;;9.00;5.75;;;9.30;83.20;;;;;;5053838;28;20036;-52
2021/12/21 13:26:39;;;;;;;18.98;10.82;;;9.40;82.00;;;;;;5053262;28;20025;-52
2021/12/21 13:29:09;;;;;;;16.63;8.75;;;8.90;82.70;;;;;;5056168;28;20476;-52
2021/12/21 13:31:35;;;;;;;9.00;5.85;;;8.70;81.90;;;;;;5057629;28;20044;-52
2021/12/21 13:34:02;;;;;;;6.78;4.80;;;8.20;82.30;;;;;;5053994;28;20044;-53
2021/12/21 13:36:39;;;;;;;6.95;3.88;;;8.50;83.20;;;;;;5065157;28;20051;-53
2021/12/21 13:39:25;;;;;;;5.47;3.90;;;8.70;81.60;;;;;;5067382;28;20114;-53
2021/12/21 13:41:56;;;;;;;6.28;3.78;;;9.00;82.20;;;;;;5077292;28;20079;-52
2021/12/21 13:44:29;;;;;;;3.97;3.40;;;8.40;82.30;;;;;;5077741;28;20032;-52
2021/12/21 13:47:01;;;;;;;7.93;4.45;;;8.20;85.70;;;;;;5077397;28;20055;-52
2021/12/21 13:49:27;;;;;;;5.90;4.05;;;8.20;88.20;;;;;;5077697;28;20029;-52
2021/12/21 13:51:56;;;;;;;14.02;7.82;;;8.40;82.60;;;;;;5067919;28;20033;-52
2021/12/21 13:54:23;;;;;;;8.85;4.80;;;8.60;82.20;;;;;;5071251;28;20036;-52
2021/12/21 13:56:50;;;;;;;5.45;3.38;;;8.10;83.90;;;;;;5071391;28;20456;-52
2021/12/21 13:59:19;;;;;;;6.30;3.60;;;7.60;83.00;;;;;;5062649;28;20041;-52
2021/12/21 14:01:48;;;;;;;5.85;3.78;;;7.20;84.70;;;;;;5057080;28;20048;-53
2021/12/21 14:04:17;;;;;;;5.72;3.25;;;7.30;85.60;;;;;;5056615;28;20503;-53
2021/12/21 14:06:45;;;;;;;15.40;6.05;;;7.40;84.40;;;;;;5037797;28;20046;-52
2021/12/21 14:09:12;;;;;;;18.60;8.70;;;7.80;84.60;;;;;;5034128;28;20064;-53
2021/12/21 14:11:40;;;;;;;12.63;5.57;;;8.20;84.60;;;;;;5016885;28;20045;-52
2021/12/21 14:14:14;;;;;;;10.55;4.15;;;8.10;82.70;;;;;;5032964;28;20172;-52